createdAt,value
2017-08-19T00:00:44.423Z,19.70
2017-08-19T00:03:12.805Z,19.60
2017-08-19T00:05:40.293Z,19.60
2017-08-19T00:08:07.821Z,19.60
2017-08-19T00:10:35.333Z,19.50
2017-08-19T00:13:02.844Z,19.50
2017-08-19T00:15:30.396Z,19.40
2017-08-19T00:17:57.894Z,19.40
2017-08-19T00:20:25.408Z,19.40
2017-08-19T00:22:52.919Z,19.40
2017-08-19T00:25:20.433Z,19.30
2017-08-19T00:27:47.949Z,19.20
2017-08-19T00:30:15.492Z,19.10
2017-08-19T00:32:42.995Z,19.10
2017-08-19T00:35:10.486Z,19.00
2017-08-19T00:37:38.009Z,18.90
2017-08-19T00:40:05.495Z,18.90
2017-08-19T00:42:33.000Z,18.90
2017-08-19T00:45:00.616Z,18.90
2017-08-19T00:47:28.142Z,18.90
2017-08-19T00:49:55.658Z,18.80
2017-08-19T00:52:23.148Z,18.80
2017-08-19T00:54:51.423Z,18.60
2017-08-19T00:57:19.688Z,18.50
2017-08-19T00:59:48.001Z,18.50
2017-08-19T01:02:15.550Z,18.50
2017-08-19T01:04:43.082Z,18.50
2017-08-19T01:07:11.383Z,18.50
2017-08-19T01:09:38.937Z,18.50
2017-08-19T01:12:06.437Z,18.50
2017-08-19T01:14:33.958Z,18.50
2017-08-19T01:17:01.509Z,18.50
2017-08-19T01:19:29.076Z,18.50
2017-08-19T01:21:56.633Z,18.50
2017-08-19T01:24:24.129Z,18.40
2017-08-19T01:26:57.685Z,18.40
2017-08-19T01:29:25.180Z,18.40
2017-08-19T01:31:52.736Z,18.40
2017-08-19T01:34:20.256Z,18.40
2017-08-19T01:36:47.792Z,18.40
2017-08-19T01:39:16.085Z,18.40
2017-08-19T01:41:43.643Z,18.40
2017-08-19T01:44:11.148Z,18.40
2017-08-19T01:46:38.642Z,18.30
2017-08-19T01:49:06.930Z,18.20
2017-08-19T01:51:34.427Z,18.20
2017-08-19T01:54:01.956Z,18.20
2017-08-19T01:56:29.473Z,18.20
2017-08-19T01:58:57.076Z,18.10
2017-08-19T02:01:24.625Z,18.10
2017-08-19T02:03:52.229Z,18.10
2017-08-19T02:06:19.745Z,18.00
2017-08-19T02:08:47.256Z,18.00
2017-08-19T02:11:14.764Z,18.00
2017-08-19T02:13:42.508Z,18.00
2017-08-19T02:16:10.780Z,17.90
2017-08-19T02:18:39.060Z,18.00
2017-08-19T02:21:07.345Z,18.00
2017-08-19T02:23:34.920Z,17.90
2017-08-19T02:26:02.404Z,17.90
2017-08-19T02:28:29.907Z,17.90
2017-08-19T02:30:58.202Z,17.90
2017-08-19T02:33:25.744Z,17.90
2017-08-19T02:35:53.996Z,17.90
2017-08-19T02:38:21.535Z,17.90
2017-08-19T02:40:49.020Z,17.90
2017-08-19T02:43:17.293Z,17.90
2017-08-19T02:45:45.615Z,17.90
2017-08-19T02:48:13.188Z,17.90
2017-08-19T02:50:40.723Z,18.00
2017-08-19T02:53:08.270Z,18.00
2017-08-19T02:55:35.820Z,18.00
2017-08-19T02:58:03.316Z,18.00
2017-08-19T03:00:30.830Z,18.00
2017-08-19T03:02:59.213Z,18.00
2017-08-19T03:05:26.726Z,18.00
2017-08-19T03:07:54.360Z,18.00
2017-08-19T03:10:21.896Z,18.10
2017-08-19T03:12:49.403Z,18.10
2017-08-19T03:15:16.911Z,18.20
2017-08-19T03:17:44.459Z,18.20
2017-08-19T03:20:12.716Z,18.20
2017-08-19T03:22:40.971Z,18.20
2017-08-19T03:25:08.480Z,18.20
2017-08-19T03:27:36.028Z,18.20
2017-08-19T03:30:03.564Z,18.10
2017-08-19T03:32:31.836Z,18.10
2017-08-19T03:34:59.416Z,18.10
2017-08-19T03:37:27.673Z,18.10
2017-08-19T03:39:55.943Z,18.00
2017-08-19T03:42:23.536Z,18.00
2017-08-19T03:44:51.093Z,18.00
2017-08-19T03:47:18.609Z,18.00
2017-08-19T03:49:46.104Z,17.90
2017-08-19T03:52:13.625Z,17.90
2017-08-19T03:54:41.214Z,17.90
2017-08-19T03:57:09.460Z,17.80
2017-08-19T03:59:36.968Z,17.80
2017-08-19T04:02:04.507Z,17.80
2017-08-19T04:04:32.083Z,17.70
2017-08-19T04:06:59.595Z,17.70
2017-08-19T04:09:27.076Z,17.70
2017-08-19T04:11:55.375Z,17.60
2017-08-19T04:14:22.866Z,17.60
2017-08-19T04:16:50.475Z,17.60
2017-08-19T04:19:17.957Z,17.60
2017-08-19T04:21:45.494Z,17.60
2017-08-19T04:24:13.031Z,17.60
2017-08-19T04:26:41.349Z,17.50
2017-08-19T04:29:08.832Z,17.40
2017-08-19T04:31:36.439Z,17.40
2017-08-19T04:34:04.028Z,17.40
2017-08-19T04:36:31.532Z,17.40
2017-08-19T04:38:59.788Z,17.40
2017-08-19T04:41:27.312Z,17.30
2017-08-19T04:43:54.805Z,17.30
2017-08-19T04:46:22.316Z,17.20
2017-08-19T04:48:49.828Z,17.20
2017-08-19T04:51:17.408Z,17.20
2017-08-19T04:53:45.704Z,17.10
2017-08-19T04:56:13.253Z,17.10
2017-08-19T04:58:40.764Z,17.10
2017-08-19T05:01:08.368Z,17.00
2017-08-19T05:03:35.866Z,17.00
2017-08-19T05:06:03.385Z,17.00
2017-08-19T05:08:30.937Z,17.00
2017-08-19T05:10:59.216Z,17.00
2017-08-19T05:13:26.785Z,17.00
2017-08-19T05:15:54.305Z,16.90
2017-08-19T05:18:22.568Z,16.90
2017-08-19T05:20:50.074Z,16.90
2017-08-19T05:23:17.583Z,16.90
2017-08-19T05:28:24.927Z,16.80
2017-08-19T05:30:52.419Z,16.70
2017-08-19T05:33:20.052Z,16.60
2017-08-19T05:35:47.549Z,16.50
2017-08-19T05:38:15.040Z,16.50
2017-08-19T05:40:42.568Z,16.50
2017-08-19T05:43:10.091Z,16.60
2017-08-19T05:45:37.600Z,16.60
2017-08-19T05:48:05.181Z,16.70
2017-08-19T05:50:32.769Z,16.70
2017-08-19T05:53:00.300Z,16.70
2017-08-19T05:55:27.860Z,16.80
2017-08-19T05:57:55.373Z,16.90
2017-08-19T06:00:22.880Z,16.90
2017-08-19T06:02:50.444Z,16.90
2017-08-19T06:05:17.993Z,17.00
2017-08-19T06:07:45.482Z,17.00
2017-08-19T06:10:12.998Z,17.00
2017-08-19T06:12:41.279Z,16.90
2017-08-19T06:15:09.683Z,16.80
2017-08-19T06:17:37.218Z,16.80
2017-08-19T06:20:04.781Z,16.90
2017-08-19T06:22:32.269Z,16.90
2017-08-19T06:24:59.769Z,16.90
2017-08-19T06:27:28.043Z,16.80
2017-08-19T06:29:56.298Z,16.80
2017-08-19T06:32:23.865Z,16.80
2017-08-19T06:34:51.352Z,16.70
2017-08-19T06:37:19.657Z,16.70
2017-08-19T06:39:47.164Z,16.60
2017-08-19T06:42:14.673Z,16.60
2017-08-19T06:44:42.205Z,16.60
2017-08-19T06:47:09.786Z,16.50
2017-08-19T06:49:37.276Z,16.50
2017-08-19T06:52:04.828Z,16.60
2017-08-19T06:54:32.336Z,16.50
2017-08-19T06:56:59.942Z,16.50
2017-08-19T06:59:27.436Z,16.50
2017-08-19T07:01:54.977Z,16.50
2017-08-19T07:04:22.583Z,16.60
2017-08-19T07:06:50.140Z,16.60
2017-08-19T07:09:17.675Z,16.70
2017-08-19T07:11:45.938Z,16.70
2017-08-19T07:14:14.225Z,16.70
2017-08-19T07:16:41.733Z,16.60
2017-08-19T07:19:09.261Z,16.70
2017-08-19T07:21:36.764Z,16.60
2017-08-19T07:24:04.264Z,16.70
2017-08-19T07:26:31.789Z,16.80
2017-08-19T07:29:00.069Z,16.70
2017-08-19T07:31:27.610Z,16.70
2017-08-19T07:33:55.130Z,16.80
2017-08-19T07:36:22.625Z,16.80
2017-08-19T07:38:50.232Z,16.80
2017-08-19T07:41:17.727Z,16.80
2017-08-19T07:43:45.261Z,17.00
2017-08-19T07:46:12.764Z,17.00
2017-08-19T07:48:40.273Z,17.10
2017-08-19T07:51:07.783Z,17.30
2017-08-19T07:53:35.273Z,17.50
2017-08-19T07:56:02.883Z,17.60
2017-08-19T07:58:30.485Z,17.60
2017-08-19T08:00:58.779Z,17.70
2017-08-19T08:03:26.323Z,17.70
2017-08-19T08:05:53.807Z,17.80
2017-08-19T08:08:21.351Z,17.80
2017-08-19T08:10:48.872Z,17.80
2017-08-19T08:13:17.159Z,17.80
2017-08-19T08:15:45.465Z,17.80
2017-08-19T08:18:12.966Z,17.70
2017-08-19T08:20:40.494Z,17.80
2017-08-19T08:23:07.980Z,17.80
2017-08-19T08:25:35.470Z,17.80
2017-08-19T08:28:02.979Z,17.90
2017-08-19T08:30:30.473Z,18.00
2017-08-19T08:32:58.764Z,18.00
2017-08-19T08:35:26.260Z,18.00
2017-08-19T08:37:53.750Z,18.20
2017-08-19T08:40:21.278Z,18.30
2017-08-19T08:42:48.805Z,18.40
2017-08-19T08:45:16.382Z,18.50
2017-08-19T08:47:43.891Z,18.50
2017-08-19T08:50:12.189Z,18.70
2017-08-19T08:52:39.753Z,18.70
2017-08-19T08:55:07.249Z,18.80
2017-08-19T08:57:34.791Z,18.90
2017-08-19T09:00:02.332Z,18.90
2017-08-19T09:02:29.845Z,19.00
2017-08-19T09:04:57.340Z,19.10
2017-08-19T09:07:24.888Z,19.20
2017-08-19T09:09:53.141Z,19.40
2017-08-19T09:12:20.653Z,19.30
2017-08-19T09:14:48.181Z,19.50
2017-08-19T09:17:15.672Z,19.50
2017-08-19T09:19:43.218Z,19.60
2017-08-19T09:22:10.720Z,19.60
2017-08-19T09:24:38.328Z,19.60
2017-08-19T09:27:05.835Z,19.60
2017-08-19T09:29:33.325Z,19.60
2017-08-19T09:32:00.853Z,19.60
2017-08-19T09:34:28.366Z,19.70
2017-08-19T09:36:55.911Z,19.80
2017-08-19T09:39:23.417Z,19.90
2017-08-19T09:41:50.937Z,19.80
2017-08-19T09:44:18.492Z,19.80
2017-08-19T09:46:46.012Z,19.90
2017-08-19T09:49:14.408Z,20.00
2017-08-19T09:51:41.940Z,19.90
2017-08-19T09:54:09.452Z,19.90
2017-08-19T09:56:37.107Z,19.90
2017-08-19T09:59:04.607Z,19.90
2017-08-19T10:01:32.216Z,19.90
2017-08-19T10:03:59.742Z,20.00
2017-08-19T10:06:28.038Z,20.00
2017-08-19T10:09:07.481Z,20.00
2017-08-19T10:11:35.048Z,20.00
2017-08-19T10:14:02.561Z,20.10
2017-08-19T10:16:30.084Z,20.10
2017-08-19T10:18:57.589Z,20.20
2017-08-19T10:21:25.877Z,20.20
2017-08-19T10:23:53.462Z,20.20
2017-08-19T10:26:20.968Z,20.30
2017-08-19T10:28:48.576Z,20.40
2017-08-19T10:31:16.095Z,20.40
2017-08-19T10:33:44.395Z,20.80
2017-08-19T10:36:11.923Z,20.80
2017-08-19T10:38:40.188Z,21.10
2017-08-19T10:41:07.711Z,21.10
2017-08-19T10:43:35.232Z,21.40
2017-08-19T10:46:03.558Z,21.80
2017-08-19T10:48:31.066Z,21.80
2017-08-19T10:50:58.557Z,22.00
2017-08-19T10:53:26.077Z,22.30
2017-08-19T10:55:54.329Z,22.50
2017-08-19T10:58:21.935Z,22.50
2017-08-19T11:00:49.446Z,22.60
2017-08-19T11:03:16.962Z,22.60
2017-08-19T11:05:44.492Z,22.60
2017-08-19T11:08:11.992Z,22.40
2017-08-19T11:10:39.522Z,22.30
2017-08-19T11:13:07.188Z,22.20
2017-08-19T11:15:34.705Z,22.50
2017-08-19T11:18:03.014Z,23.00
2017-08-19T11:20:30.578Z,22.90
2017-08-19T11:22:58.116Z,22.90
2017-08-19T11:25:25.619Z,23.20
2017-08-19T11:27:53.116Z,23.50
2017-08-19T11:30:21.421Z,24.10
2017-08-19T11:32:48.985Z,24.00
2017-08-19T11:35:16.500Z,24.30
2017-08-19T11:37:44.016Z,24.20
2017-08-19T11:40:11.519Z,24.30
2017-08-19T11:42:39.801Z,23.90
2017-08-19T11:45:08.064Z,24.00
2017-08-19T11:47:35.577Z,23.90
2017-08-19T11:50:03.077Z,23.80
2017-08-19T11:52:30.605Z,23.60
2017-08-19T11:54:58.100Z,23.80
2017-08-19T11:57:26.364Z,24.50
2017-08-19T11:59:53.893Z,24.50
2017-08-19T12:02:21.391Z,24.80
2017-08-19T12:04:49.652Z,25.30
2017-08-19T12:07:17.192Z,25.20
2017-08-19T12:09:44.772Z,25.50
2017-08-19T12:12:12.274Z,25.50
2017-08-19T12:14:40.771Z,25.30
2017-08-19T12:17:08.296Z,25.30
2017-08-19T12:19:35.797Z,25.30
2017-08-19T12:22:03.326Z,25.60
2017-08-19T12:24:30.849Z,25.80
2017-08-19T12:26:59.150Z,26.20
2017-08-19T12:29:26.642Z,26.20
2017-08-19T12:31:54.189Z,26.40
2017-08-19T12:34:21.720Z,26.50
2017-08-19T12:36:49.224Z,26.50
2017-08-19T12:39:16.789Z,26.70
2017-08-19T12:41:44.294Z,27.00
2017-08-19T12:44:11.798Z,27.10
2017-08-19T12:46:39.353Z,27.30
2017-08-19T12:49:06.876Z,27.50
2017-08-19T12:51:34.400Z,27.70
2017-08-19T12:54:02.656Z,28.00
2017-08-19T12:56:30.144Z,28.00
2017-08-19T12:58:57.725Z,28.10
2017-08-19T13:01:25.264Z,27.90
2017-08-19T13:03:52.753Z,27.50
2017-08-19T13:06:20.278Z,27.50
2017-08-19T13:08:47.778Z,27.50
2017-08-19T13:11:15.292Z,27.50
2017-08-19T13:13:42.861Z,27.50
2017-08-19T13:16:10.348Z,27.40
2017-08-19T13:18:37.866Z,27.50
2017-08-19T13:21:05.374Z,27.50
2017-08-19T13:23:33.426Z,27.60
2017-08-19T13:26:00.925Z,27.50
2017-08-19T13:28:28.430Z,27.60
2017-08-19T13:30:55.949Z,27.60
2017-08-19T13:33:24.266Z,27.60
2017-08-19T13:35:51.804Z,27.60
2017-08-19T13:38:19.312Z,27.60
2017-08-19T13:40:46.857Z,27.70
2017-08-19T13:43:14.364Z,27.80
2017-08-19T13:45:42.627Z,27.80
2017-08-19T13:48:10.937Z,27.70
2017-08-19T13:50:38.454Z,27.70
2017-08-19T13:53:06.767Z,27.40
2017-08-19T13:55:34.287Z,27.40
2017-08-19T13:58:01.873Z,27.40
2017-08-19T14:00:29.395Z,27.30
2017-08-19T14:02:56.895Z,27.20
2017-08-19T14:05:24.437Z,27.00
2017-08-19T14:07:52.729Z,27.30
2017-08-19T14:10:20.226Z,27.30
2017-08-19T14:12:47.738Z,27.20
2017-08-19T14:15:15.228Z,27.10
2017-08-19T14:17:42.732Z,27.00
2017-08-19T14:20:11.020Z,26.70
2017-08-19T14:22:39.312Z,26.50
2017-08-19T14:25:06.823Z,26.40
2017-08-19T14:27:34.353Z,26.40
2017-08-19T14:30:01.873Z,26.20
2017-08-19T14:32:29.369Z,26.40
2017-08-19T14:34:56.884Z,26.50
2017-08-19T14:37:25.181Z,26.70
2017-08-19T14:39:52.679Z,26.70
2017-08-19T14:42:20.167Z,26.70
2017-08-19T14:44:48.574Z,26.50
2017-08-19T14:47:16.075Z,26.40
2017-08-19T14:49:43.571Z,26.30
2017-08-19T14:52:11.117Z,26.10
2017-08-19T14:54:39.396Z,25.90
2017-08-19T14:57:07.704Z,26.00
2017-08-19T14:59:35.218Z,25.90
2017-08-19T15:02:03.516Z,26.00
2017-08-19T15:04:31.028Z,26.00
2017-08-19T15:06:58.519Z,25.90
2017-08-19T15:09:26.829Z,26.10
2017-08-19T15:11:54.337Z,26.10
2017-08-19T15:14:21.852Z,26.20
2017-08-19T15:16:49.489Z,26.40
2017-08-19T15:19:17.068Z,26.60
2017-08-19T15:21:44.568Z,26.70
2017-08-19T15:24:12.092Z,26.60
2017-08-19T15:26:39.576Z,26.50
2017-08-19T15:29:07.108Z,26.20
2017-08-19T15:31:34.612Z,26.00
2017-08-19T15:34:02.195Z,25.80
2017-08-19T15:36:29.724Z,25.60
2017-08-19T15:38:57.972Z,25.40
2017-08-19T15:41:25.508Z,25.40
2017-08-19T15:43:53.017Z,25.30
2017-08-19T15:46:21.289Z,24.90
2017-08-19T15:48:49.624Z,24.80
2017-08-19T15:51:17.121Z,24.70
2017-08-19T15:53:45.422Z,24.50
2017-08-19T15:56:12.980Z,24.50
2017-08-19T15:58:40.541Z,24.40
2017-08-19T16:01:08.109Z,24.30
2017-08-19T16:03:35.619Z,24.20
2017-08-19T16:06:03.204Z,24.10
2017-08-19T16:08:30.704Z,24.00
2017-08-19T16:10:58.210Z,24.00
2017-08-19T16:13:26.604Z,23.90
2017-08-19T16:15:54.108Z,23.90
2017-08-19T16:18:21.637Z,23.80
2017-08-19T16:20:49.300Z,23.80
2017-08-19T16:23:16.792Z,23.80
2017-08-19T16:25:44.316Z,23.80
2017-08-19T16:28:11.820Z,23.80
2017-08-19T16:30:39.424Z,23.90
2017-08-19T16:33:06.972Z,24.10
2017-08-19T16:35:34.521Z,24.10
2017-08-19T16:38:02.016Z,23.90
2017-08-19T16:40:29.496Z,23.90
2017-08-19T16:42:57.004Z,23.70
2017-08-19T16:45:24.522Z,23.70
2017-08-19T16:47:52.126Z,23.70
2017-08-19T16:50:19.716Z,23.70
2017-08-19T16:52:47.213Z,23.70
2017-08-19T16:55:15.497Z,23.50
2017-08-19T16:57:43.761Z,23.50
2017-08-19T17:00:12.053Z,23.50
2017-08-19T17:02:39.572Z,23.50
2017-08-19T17:05:07.056Z,23.60
2017-08-19T17:07:35.360Z,23.50
2017-08-19T17:10:02.904Z,23.40
2017-08-19T17:12:30.409Z,23.40
2017-08-19T17:14:57.928Z,23.30
2017-08-19T17:17:25.488Z,23.20
2017-08-19T17:19:53.021Z,23.20
2017-08-19T17:22:21.303Z,23.10
2017-08-19T17:24:49.595Z,23.00
2017-08-19T17:27:17.137Z,23.00
2017-08-19T17:29:44.689Z,22.90
2017-08-19T17:32:12.962Z,22.80
2017-08-19T17:34:41.256Z,22.70
2017-08-19T17:37:08.780Z,22.70
2017-08-19T17:39:36.391Z,22.70
2017-08-19T17:42:03.936Z,22.60
2017-08-19T17:44:31.473Z,22.50
2017-08-19T17:46:59.774Z,22.30
2017-08-19T17:49:27.306Z,22.30
2017-08-19T17:51:55.605Z,22.30
2017-08-19T17:54:23.108Z,22.30
2017-08-19T17:56:50.716Z,22.20
2017-08-19T17:59:18.278Z,22.20
2017-08-19T18:01:45.813Z,22.20
2017-08-19T18:04:14.090Z,22.10
2017-08-19T18:06:42.360Z,22.10
2017-08-19T18:09:10.657Z,22.10
2017-08-19T18:11:38.148Z,22.00
2017-08-19T18:14:05.691Z,22.00
2017-08-19T18:16:33.194Z,22.00
2017-08-19T18:19:00.697Z,21.90
2017-08-19T18:21:28.225Z,21.80
2017-08-19T18:23:56.492Z,21.70
2017-08-19T18:26:24.786Z,21.60
2017-08-19T18:28:52.378Z,21.60
2017-08-19T18:31:19.944Z,21.60
2017-08-19T18:33:47.471Z,21.50
2017-08-19T18:36:15.040Z,21.30
2017-08-19T18:38:42.540Z,21.20
2017-08-19T18:41:10.105Z,21.10
2017-08-19T18:43:37.612Z,21.00
2017-08-19T18:46:05.178Z,20.90
2017-08-19T18:48:32.674Z,20.70
2017-08-19T18:51:00.188Z,20.60
2017-08-19T18:53:27.678Z,20.60
2017-08-19T18:55:55.305Z,20.50
2017-08-19T18:58:22.856Z,20.40
2017-08-19T19:00:50.389Z,20.40
2017-08-19T19:03:18.665Z,20.30
2017-08-19T19:05:46.924Z,20.20
2017-08-19T19:08:14.440Z,20.20
2017-08-19T19:10:41.936Z,20.20
2017-08-19T19:13:09.463Z,20.10
2017-08-19T19:15:36.989Z,20.10
2017-08-19T19:18:04.473Z,20.00
2017-08-19T19:20:31.988Z,19.90
2017-08-19T19:23:00.242Z,19.80
2017-08-19T19:25:27.857Z,19.70
2017-08-19T19:27:55.378Z,19.70
2017-08-19T19:30:23.649Z,19.60
2017-08-19T19:32:51.958Z,19.50
2017-08-19T19:35:19.468Z,19.50
2017-08-19T19:37:47.071Z,19.40
2017-08-19T19:40:14.600Z,19.40
2017-08-19T19:42:42.871Z,19.30
2017-08-19T19:45:11.162Z,19.20
2017-08-19T19:47:38.682Z,19.20
2017-08-19T19:50:06.179Z,19.10
2017-08-19T19:52:33.738Z,19.00
2017-08-19T19:55:01.236Z,19.00
2017-08-19T19:57:28.745Z,18.90
2017-08-19T19:59:57.025Z,18.90
2017-08-19T20:02:24.533Z,18.90
2017-08-19T20:04:52.056Z,18.80
2017-08-19T20:07:19.605Z,18.80
2017-08-19T20:09:47.159Z,18.70
2017-08-19T20:12:14.696Z,18.60
2017-08-19T20:14:42.269Z,18.60
2017-08-19T20:17:09.876Z,18.50
2017-08-19T20:19:37.527Z,18.50
2017-08-19T20:22:05.017Z,18.40
2017-08-19T20:24:32.540Z,18.30
2017-08-19T20:27:00.039Z,18.30
2017-08-19T20:29:27.543Z,18.30
2017-08-19T20:31:55.082Z,18.20
2017-08-19T20:34:22.584Z,18.20
2017-08-19T20:36:50.118Z,18.10
2017-08-19T20:39:17.613Z,18.20
2017-08-19T20:41:45.111Z,18.10
2017-08-19T20:44:12.648Z,18.00
2017-08-19T20:46:40.928Z,18.00
2017-08-19T20:49:09.185Z,18.00
2017-08-19T20:51:36.717Z,18.00
2017-08-19T20:54:04.213Z,18.00
2017-08-19T20:56:32.509Z,18.00
2017-08-19T20:59:00.012Z,18.00
2017-08-19T21:01:27.552Z,18.00
2017-08-19T21:03:55.040Z,18.00
2017-08-19T21:06:22.561Z,17.80
2017-08-19T21:08:50.091Z,17.80
2017-08-19T21:11:18.394Z,17.50
2017-08-19T21:13:45.925Z,17.50
2017-08-19T21:16:14.180Z,17.20
2017-08-19T21:18:42.453Z,17.20
2017-08-19T21:21:09.975Z,17.20
2017-08-19T21:23:37.483Z,17.20
2017-08-19T21:26:05.772Z,17.30
2017-08-19T21:28:33.273Z,17.20
2017-08-19T21:31:00.760Z,17.30
2017-08-19T21:33:29.046Z,17.40
2017-08-19T21:35:57.325Z,17.30
2017-08-19T21:38:25.616Z,17.20
2017-08-19T21:40:53.108Z,17.20
2017-08-19T21:43:20.638Z,17.20
2017-08-19T21:45:48.168Z,17.20
2017-08-19T21:48:16.421Z,17.20
2017-08-19T21:50:43.928Z,17.20
2017-08-19T21:53:11.471Z,17.20
2017-08-19T21:55:39.000Z,17.10
2017-08-19T21:58:07.265Z,17.00
2017-08-19T22:00:34.752Z,17.00
2017-08-19T22:03:03.060Z,16.90
2017-08-19T22:05:30.560Z,16.90
2017-08-19T22:07:58.081Z,16.90
2017-08-19T22:10:25.600Z,16.90
2017-08-19T22:12:53.894Z,16.90
2017-08-19T22:15:21.384Z,16.90
2017-08-19T22:17:48.893Z,16.90
2017-08-19T22:20:17.165Z,16.90
2017-08-19T22:22:45.450Z,16.90
2017-08-19T22:25:13.017Z,16.80
2017-08-19T22:27:40.533Z,16.90
2017-08-19T22:30:08.022Z,16.90
2017-08-19T22:32:35.553Z,16.90
2017-08-19T22:35:03.077Z,16.90
2017-08-19T22:37:30.568Z,16.90
2017-08-19T22:39:58.104Z,16.90
2017-08-19T22:42:25.613Z,16.80
2017-08-19T22:44:53.108Z,16.80
2017-08-19T22:47:20.637Z,16.80
2017-08-19T22:49:48.201Z,16.80
2017-08-19T22:52:15.714Z,16.80
2017-08-19T22:54:43.206Z,16.80
2017-08-19T22:57:10.727Z,16.80
2017-08-19T22:59:38.241Z,16.80
2017-08-19T23:02:05.744Z,16.70
2017-08-19T23:04:33.273Z,16.70
2017-08-19T23:07:00.784Z,16.60
2017-08-19T23:09:28.281Z,16.60
2017-08-19T23:11:55.884Z,16.60
2017-08-19T23:14:24.147Z,16.60
2017-08-19T23:16:51.634Z,16.50
2017-08-19T23:19:19.144Z,16.60
2017-08-19T23:21:46.633Z,16.60
2017-08-19T23:24:14.912Z,16.50
2017-08-19T23:26:43.200Z,16.50
2017-08-19T23:29:10.691Z,16.50
2017-08-19T23:31:38.312Z,16.60
2017-08-19T23:34:05.808Z,16.60
2017-08-19T23:36:33.324Z,16.70
2017-08-19T23:39:01.578Z,16.70
2017-08-19T23:41:29.180Z,16.70
2017-08-19T23:43:56.680Z,16.70
2017-08-19T23:46:24.168Z,16.70
2017-08-19T23:48:52.564Z,16.60
2017-08-19T23:51:20.093Z,16.60
2017-08-19T23:53:48.409Z,16.50
2017-08-19T23:56:15.927Z,16.50
2017-08-19T23:58:44.210Z,16.50
